Time;durP1;ratioP1;P1;durP2;ratioP2;P2;SDS_P1;SDS_P2;PMS_P1;PMS_P2;Temp;Humidity;BMP_temperature;BMP_pressure;BME280_temperature;BME280_humidity;BME280_pressure;Samples;Min_cycle;Max_cycle;Signal;HPM_P1;HPM_P2
2023/09/07 00:01:14;;;;;;;;;;;;;;;15.69;100.00;101912.94;5027169;28;19913;-73
2023/09/07 00:03:40;;;;;;;;;;;;;;;15.68;100.00;101912.06;5031469;28;19959;-73
2023/09/07 00:06:06;;;;;;;;;;;;;;;15.65;100.00;101908.75;5033131;28;19924;-72
2023/09/07 00:08:32;;;;;;;;;;;;;;;15.60;100.00;101915.41;5027398;28;20099;-73
2023/09/07 00:11:02;;;;;;;;;;;;;;;15.58;100.00;101919.22;5028713;28;19960;-73
2023/09/07 00:13:27;;;;;;;;;;;;;;;15.56;100.00;101918.50;5033410;28;19971;-72
2023/09/07 00:15:53;;;;;;;;;;;;;;;15.48;100.00;101913.72;5030910;28;20397;-72
2023/09/07 00:18:18;;;;;;;;;;;;;;;15.53;100.00;101910.63;5027572;28;20058;-73
2023/09/07 00:20:43;;;;;;;;;;;;;;;15.55;100.00;101905.94;5028097;28;19921;-73
2023/09/07 00:23:08;;;;;;;;;;;;;;;15.52;100.00;101909.75;5030482;28;19947;-72
2023/09/07 00:25:33;;;;;;;;;;;;;;;15.42;100.00;101906.09;5027238;28;19921;-73
2023/09/07 00:27:59;;;;;;;;;;;;;;;15.41;100.00;101907.91;5030591;28;19916;-72
2023/09/07 00:30:24;;;;;;;;;;;;;;;15.40;100.00;101906.19;5029015;28;20931;-72
2023/09/07 00:32:49;;;;;;;;;;;;;;;15.42;100.00;101906.09;5034533;28;20390;-72
2023/09/07 00:35:14;;;;;;;;;;;;;;;15.41;100.00;101901.66;5028771;28;20399;-72
2023/09/07 00:37:39;;;;;;;;;;;;;;;15.40;100.00;101898.09;5028407;28;19924;-73
2023/09/07 00:40:08;;;;;;;;;;;;;;;15.38;100.00;101899.22;5011075;28;19924;-72
2023/09/07 00:42:34;;;;;;;;;;;;;;;15.36;100.00;101895.75;5025252;28;20430;-73
2023/09/07 00:44:59;;;;;;;;;;;;;;;15.29;100.00;101882.72;5030093;28;20023;-73
2023/09/07 00:47:24;;;;;;;;;;;;;;;15.23;100.00;101885.91;5027700;28;19917;-73
2023/09/07 00:49:49;;;;;;;;;;;;;;;15.17;100.00;101880.16;5030311;28;19931;-73
2023/09/07 00:52:15;;;;;;;;;;;;;;;15.13;100.00;101880.41;5012965;28;20228;-72
2023/09/07 00:54:40;;;;;;;;;;;;;;;15.09;100.00;101883.50;5013308;28;20330;-72
2023/09/07 00:57:06;;;;;;;;;;;;;;;15.04;100.00;101886.56;5028817;28;20357;-72
2023/09/07 00:59:34;;;;;;;;;;;;;;;15.02;100.00;101885.84;5027663;28;20220;-73
2023/09/07 01:01:59;;;;;;;;;;;;;;;14.95;100.00;101888.19;5030032;28;19952;-73
2023/09/07 01:04:25;;;;;;;;;;;;;;;15.03;100.00;101876.75;5029473;28;19920;-73
2023/09/07 01:06:51;;;;;;;;;;;;;;;15.06;100.00;101884.63;5030180;28;19921;-72
2023/09/07 01:09:21;;;;;;;;;;;;;;;15.06;100.00;101884.63;5014192;28;19925;-72
2023/09/07 01:11:47;;;;;;;;;;;;;;;15.05;100.00;101882.88;5026364;28;19962;-72
2023/09/07 01:14:12;;;;;;;;;;;;;;;15.05;100.00;101876.59;5029941;28;19921;-72
2023/09/07 01:16:39;;;;;;;;;;;;;;;15.08;100.00;101881.78;5030569;28;20047;-72
2023/09/07 01:19:07;;;;;;;;;;;;;;;15.05;100.00;101884.72;5029976;28;19969;-73
2023/09/07 01:21:36;;;;;;;;;;;;;;;14.96;100.00;101884.47;5029451;28;19955;-73
2023/09/07 01:24:01;;;;;;;;;;;;;;;14.95;100.00;101881.91;5030134;28;19916;-72
2023/09/07 01:26:26;;;;;;;;;;;;;;;14.92;100.00;101880.31;5031446;28;19931;-72
2023/09/07 01:28:51;;;;;;;;;;;;;;;14.89;100.00;101883.25;5027649;28;19982;-72
2023/09/07 01:31:17;;;;;;;;;;;;;;;14.90;100.00;101876.00;5030928;28;19921;-73
2023/09/07 01:33:42;;;;;;;;;;;;;;;14.85;100.00;101874.50;5028135;28;19921;-73
2023/09/07 01:36:07;;;;;;;;;;;;;;;14.80;100.00;101874.03;5027123;28;19925;-73
2023/09/07 01:38:32;;;;;;;;;;;;;;;14.68;100.00;101874.97;5031157;28;19924;-72
2023/09/07 01:40:58;;;;;;;;;;;;;;;14.69;100.00;101884.81;5030932;28;20264;-72
2023/09/07 01:43:23;;;;;;;;;;;;;;;14.61;100.00;101879.13;5033631;28;20444;-73
2023/09/07 01:45:48;;;;;;;;;;;;;;;14.59;100.00;101875.69;5031219;28;19951;-72
2023/09/07 01:48:14;;;;;;;;;;;;;;;14.58;100.00;101877.53;5030568;28;20349;-72
2023/09/07 01:50:39;;;;;;;;;;;;;;;14.62;100.00;101878.16;5025843;28;20487;-73
2023/09/07 01:53:04;;;;;;;;;;;;;;;14.58;100.00;101865.84;5032716;28;19943;-73
2023/09/07 01:55:30;;;;;;;;;;;;;;;14.57;100.00;101872.25;5029510;28;19924;-73
2023/09/07 01:57:55;;;;;;;;;;;;;;;14.47;100.00;101869.41;5028390;28;19966;-73
2023/09/07 02:00:20;;;;;;;;;;;;;;;14.43;100.00;101867.94;5029311;28;19927;-73
2023/09/07 02:02:46;;;;;;;;;;;;;;;14.45;100.00;101879.47;5031614;28;20275;-73
2023/09/07 02:05:12;;;;;;;;;;;;;;;14.45;100.00;101874.06;5030298;28;20307;-73
2023/09/07 02:07:37;;;;;;;;;;;;;;;14.44;100.00;101875.03;5027658;28;20991;-73
2023/09/07 02:10:05;;;;;;;;;;;;;;;14.47;100.00;101866.69;5028731;28;20385;-73
2023/09/07 02:12:30;;;;;;;;;;;;;;;14.47;100.00;101875.69;5028595;28;19966;-72
2023/09/07 02:14:56;;;;;;;;;;;;;;;14.46;100.00;101876.66;5027947;28;19921;-73
2023/09/07 02:17:21;;;;;;;;;;;;;;;14.48;100.00;101871.13;5032269;28;19929;-73
2023/09/07 02:19:46;;;;;;;;;;;;;;;14.44;100.00;101872.34;5028140;28;19932;-73
2023/09/07 02:22:11;;;;;;;;;;;;;;;14.34;100.00;101877.59;5028695;28;19916;-73
2023/09/07 02:24:37;;;;;;;;;;;;;;;14.28;100.00;101867.28;5023051;28;19975;-72
2023/09/07 02:27:02;;;;;;;;;;;;;;;14.21;100.00;101874.97;5028877;28;19928;-73
2023/09/07 02:29:27;;;;;;;;;;;;;;;14.23;100.00;101870.31;5028135;28;20351;-72
2023/09/07 02:31:52;;;;;;;;;;;;;;;14.18;100.00;101876.09;5031893;28;20446;-73
2023/09/07 02:34:17;;;;;;;;;;;;;;;14.11;100.00;101869.44;5032394;28;20370;-73
2023/09/07 02:36:43;;;;;;;;;;;;;;;14.13;100.00;101872.03;5030647;28;20393;-73
2023/09/07 02:39:08;;;;;;;;;;;;;;;14.07;100.00;101863.41;5030108;28;19975;-73
2023/09/07 02:41:33;;;;;;;;;;;;;;;14.06;100.00;101868.91;5028319;28;20280;-72
2023/09/07 02:43:58;;;;;;;;;;;;;;;14.03;100.00;101871.88;5024737;28;19957;-73
2023/09/07 02:46:24;;;;;;;;;;;;;;;14.03;100.00;101864.63;5029204;28;20035;-72
2023/09/07 02:48:49;;;;;;;;;;;;;;;13.98;100.00;101874.06;5029669;28;19967;-73
2023/09/07 02:51:14;;;;;;;;;;;;;;;13.95;100.00;101873.31;5028004;28;20409;-73
2023/09/07 02:53:39;;;;;;;;;;;;;;;13.99;100.00;101878.47;5024481;28;19917;-73
2023/09/07 02:56:05;;;;;;;;;;;;;;;13.96;100.00;101866.06;5028795;28;19960;-73
2023/09/07 02:58:30;;;;;;;;;;;;;;;13.93;100.00;101877.09;5026539;28;19921;-73
2023/09/07 03:00:55;;;;;;;;;;;;;;;13.88;100.00;101874.75;5032473;28;21425;-73
2023/09/07 03:03:20;;;;;;;;;;;;;;;13.86;100.00;101878.56;5028978;28;19932;-73
2023/09/07 03:05:46;;;;;;;;;;;;;;;13.80;100.00;101882.56;5029518;28;19924;-73
2023/09/07 03:08:12;;;;;;;;;;;;;;;13.79;100.00;101878.13;5030944;28;19927;-72
2023/09/07 03:10:39;;;;;;;;;;;;;;;13.75;100.00;101876.66;5023984;28;19960;-73
2023/09/07 03:13:04;;;;;;;;;;;;;;;13.77;100.00;101872.84;5028819;28;19921;-73
2023/09/07 03:15:30;;;;;;;;;;;;;;;13.84;100.00;101875.09;5030904;28;19928;-73
2023/09/07 03:17:55;;;;;;;;;;;;;;;13.84;100.00;101869.72;5030194;28;19952;-74
2023/09/07 03:20:20;;;;;;;;;;;;;;;13.87;100.00;101873.03;5030472;28;19927;-76
2023/09/07 03:22:46;;;;;;;;;;;;;;;13.77;100.00;101850.41;5028556;28;19925;-76
2023/09/07 03:25:11;;;;;;;;;;;;;;;13.77;100.00;101855.81;5024420;28;20175;-73
2023/09/07 03:27:37;;;;;;;;;;;;;;;13.91;100.00;101874.50;5030277;28;19952;-72
2023/09/07 03:30:03;;;;;;;;;;;;;;;13.93;100.00;101877.97;5029560;28;19966;-72
2023/09/07 03:32:32;;;;;;;;;;;;;;;13.95;100.00;101870.63;5023309;28;19921;-74
2023/09/07 03:34:57;;;;;;;;;;;;;;;13.85;100.00;101869.56;5026806;28;19916;-73
2023/09/07 03:37:22;;;;;;;;;;;;;;;13.87;100.00;101862.22;5033276;28;19925;-75
2023/09/07 03:39:48;;;;;;;;;;;;;;;13.86;100.00;101871.31;5028881;28;19931;-72
2023/09/07 03:42:13;;;;;;;;;;;;;;;13.87;100.00;101867.63;5031816;28;20023;-72
2023/09/07 03:44:39;;;;;;;;;;;;;;;13.92;100.00;101862.75;5034076;28;19921;-72
2023/09/07 03:47:04;;;;;;;;;;;;;;;13.93;100.00;101860.88;5035224;28;20355;-72
2023/09/07 03:49:30;;;;;;;;;;;;;;;14.02;100.00;101867.44;5033222;28;19935;-72
2023/09/07 03:51:55;;;;;;;;;;;;;;;14.02;100.00;101865.59;5032643;28;19935;-72
2023/09/07 03:54:20;;;;;;;;;;;;;;;14.03;100.00;101867.31;5029089;28;19925;-72
2023/09/07 03:56:45;;;;;;;;;;;;;;;13.89;100.00;101867.53;5034558;28;20189;-72
2023/09/07 03:59:11;;;;;;;;;;;;;;;13.88;100.00;101879.28;5036470;28;20023;-72
2023/09/07 04:01:36;;;;;;;;;;;;;;;13.88;100.00;101876.59;5033194;28;19923;-73
2023/09/07 04:04:01;;;;;;;;;;;;;;;13.80;100.00;101869.94;5031854;28;20452;-72
2023/09/07 04:06:26;;;;;;;;;;;;;;;13.76;100.00;101873.84;5030125;28;20482;-72
2023/09/07 04:08:52;;;;;;;;;;;;;;;13.72;100.00;101874.19;5026329;28;19925;-72
2023/09/07 04:11:17;;;;;;;;;;;;;;;13.68;100.00;101872.69;5028718;28;19921;-72
2023/09/07 04:13:42;;;;;;;;;;;;;;;13.67;100.00;101876.38;5031953;28;19978;-73
2023/09/07 04:16:08;;;;;;;;;;;;;;;13.64;100.00;101870.22;5030904;28;19947;-74
2023/09/07 04:18:33;;;;;;;;;;;;;;;13.68;100.00;101870.00;5031900;28;19924;-72
2023/09/07 04:21:06;;;;;;;;;;;;;;;13.67;100.00;101865.56;5032693;28;19928;-74
2023/09/07 04:23:31;;;;;;;;;;;;;;;13.60;100.00;101865.19;5032487;28;20398;-74
2023/09/07 04:26:06;;;;;;;;;;;;;;;13.61;100.00;101864.19;5030307;28;19925;-75
2023/09/07 04:28:31;;;;;;;;;;;;;;;13.60;100.00;101868.72;5028586;28;20462;-74
2023/09/07 04:30:56;;;;;;;;;;;;;;;13.57;100.00;101863.53;5032701;28;20302;-74
2023/09/07 04:33:21;;;;;;;;;;;;;;;13.47;100.00;101863.38;5031151;28;20283;-74
2023/09/07 04:35:47;;;;;;;;;;;;;;;13.49;100.00;101858.72;5031266;28;20364;-72
2023/09/07 04:38:12;;;;;;;;;;;;;;;13.46;100.00;101861.66;5027326;28;20386;-72
2023/09/07 04:40:37;;;;;;;;;;;;;;;13.40;100.00;101864.75;5027002;28;20425;-74
2023/09/07 04:43:02;;;;;;;;;;;;;;;13.42;100.00;101862.84;5028469;28;20039;-75
2023/09/07 04:45:28;;;;;;;;;;;;;;;13.42;100.00;101868.25;5027416;28;19928;-72
2023/09/07 04:47:53;;;;;;;;;;;;;;;13.43;100.00;101871.81;5026284;28;19921;-72
2023/09/07 04:50:18;;;;;;;;;;;;;;;13.41;100.00;101879.16;5015693;28;20488;-73
2023/09/07 04:52:43;;;;;;;;;;;;;;;13.40;100.00;101872.84;5034240;28;20389;-73
2023/09/07 04:55:09;;;;;;;;;;;;;;;13.37;100.00;101880.31;5013333;28;19954;-73
2023/09/07 04:57:34;;;;;;;;;;;;;;;13.37;100.00;101880.31;5028952;28;19925;-72
2023/09/07 04:59:59;;;;;;;;;;;;;;;13.34;100.00;101882.25;5028089;28;20040;-72
2023/09/07 05:02:25;;;;;;;;;;;;;;;13.32;100.00;101880.66;5014320;28;19920;-72
2023/09/07 05:04:50;;;;;;;;;;;;;;;13.23;100.00;101879.50;5025069;28;20011;-72
2023/09/07 05:07:16;;;;;;;;;;;;;;;13.32;100.00;101883.38;5027060;28;19925;-72
2023/09/07 05:09:41;;;;;;;;;;;;;;;13.37;100.00;101881.19;5029445;28;19921;-72
2023/09/07 05:12:06;;;;;;;;;;;;;;;13.35;100.00;101883.16;5026564;28;19991;-73
2023/09/07 05:14:31;;;;;;;;;;;;;;;13.34;100.00;101889.50;5025277;28;20255;-72
2023/09/07 05:16:57;;;;;;;;;;;;;;;13.32;100.00;101888.75;5026555;28;20462;-73
2023/09/07 05:19:23;;;;;;;;;;;;;;;13.31;100.00;101889.72;5030536;28;19963;-72
2023/09/07 05:21:48;;;;;;;;;;;;;;;13.30;100.00;101894.25;5029852;28;19967;-72
2023/09/07 05:24:14;;;;;;;;;;;;;;;13.31;100.00;101895.97;5032978;28;20000;-73
2023/09/07 05:26:39;;;;;;;;;;;;;;;13.34;100.00;101893.06;5031396;28;19921;-73
2023/09/07 05:29:04;;;;;;;;;;;;;;;13.34;100.00;101894.91;5030374;28;19979;-72
2023/09/07 05:31:30;;;;;;;;;;;;;;;13.34;100.00;101893.06;5030422;28;20330;-73
2023/09/07 05:33:55;;;;;;;;;;;;;;;13.41;100.00;101903.44;5033290;28;19931;-73
2023/09/07 05:36:20;;;;;;;;;;;;;;;13.45;100.00;101902.25;5031076;28;19971;-72
2023/09/07 05:38:45;;;;;;;;;;;;;;;13.44;100.00;101906.75;5029194;28;20333;-73
2023/09/07 05:41:11;;;;;;;;;;;;;;;13.45;100.00;101915.72;5028662;28;19963;-73
2023/09/07 05:43:36;;;;;;;;;;;;;;;13.44;100.00;101920.25;5029911;28;20007;-73
2023/09/07 05:46:01;;;;;;;;;;;;;;;13.54;100.00;101914.19;5022401;28;19958;-73
2023/09/07 05:48:26;;;;;;;;;;;;;;;13.62;100.00;101920.75;5027107;28;19928;-73
2023/09/07 05:50:52;;;;;;;;;;;;;;;13.73;100.00;101916.41;5030250;28;20380;-72
2023/09/07 05:53:18;;;;;;;;;;;;;;;13.86;100.00;101924.44;5024881;28;19967;-73
2023/09/07 05:55:43;;;;;;;;;;;;;;;13.98;100.00;101928.06;5023292;28;20415;-72
2023/09/07 05:58:09;;;;;;;;;;;;;;;14.05;100.00;101927.47;5027165;28;19928;-73
2023/09/07 06:00:34;;;;;;;;;;;;;;;14.19;100.00;101929.13;5023643;28;20381;-73
2023/09/07 06:03:00;;;;;;;;;;;;;;;14.32;100.00;101931.75;5026868;28;19921;-72
2023/09/07 06:05:25;;;;;;;;;;;;;;;14.44;100.00;101931.78;5027795;28;20306;-72
2023/09/07 06:07:50;;;;;;;;;;;;;;;14.58;100.00;101930.72;5029710;28;20848;-72
2023/09/07 06:10:17;;;;;;;;;;;;;;;14.73;100.00;101940.38;5026218;28;20442;-73
2023/09/07 06:12:42;;;;;;;;;;;;;;;14.88;100.00;101932.91;5026611;28;20406;-73
2023/09/07 06:15:07;;;;;;;;;;;;;;;15.12;100.00;101937.34;5025564;28;20440;-73
2023/09/07 06:17:33;;;;;;;;;;;;;;;15.35;100.00;101937.34;5011435;28;19924;-72
2023/09/07 06:19:58;;;;;;;;;;;;;;;15.63;100.00;101937.78;5023114;28;20565;-71
2023/09/07 06:22:23;;;;;;;;;;;;;;;15.94;100.00;101941.53;5028427;28;20183;-72
2023/09/07 06:24:48;;;;;;;;;;;;;;;16.16;100.00;101942.44;5029944;28;20375;-73
2023/09/07 06:27:14;;;;;;;;;;;;;;;16.38;100.00;101952.34;5028219;28;20449;-71
2023/09/07 06:29:39;;;;;;;;;;;;;;;16.61;100.00;101957.63;5028353;28;19931;-74
2023/09/07 06:32:04;;;;;;;;;;;;;;;16.76;100.00;101958.16;5027349;28;19928;-72
2023/09/07 06:34:29;;;;;;;;;;;;;;;16.90;100.00;101955.13;5010120;28;19920;-72
2023/09/07 06:36:54;;;;;;;;;;;;;;;17.04;100.00;101959.38;5027488;28;19928;-72
2023/09/07 06:39:20;;;;;;;;;;;;;;;17.24;100.00;101960.31;5028931;28;20417;-72
2023/09/07 06:41:45;;;;;;;;;;;;;;;17.41;100.00;101957.09;5027360;28;20315;-72
2023/09/07 06:44:10;;;;;;;;;;;;;;;17.60;100.00;101951.75;5029402;28;19932;-72
2023/09/07 06:46:36;;;;;;;;;;;;;;;17.80;100.00;101959.94;5025245;28;20360;-72
2023/09/07 06:49:01;;;;;;;;;;;;;;;17.98;100.00;101955.53;5028031;28;20341;-73
2023/09/07 06:51:26;;;;;;;;;;;;;;;18.13;100.00;101956.00;5030647;28;21220;-73
2023/09/07 06:53:51;;;;;;;;;;;;;;;18.23;100.00;101952.44;5025718;28;19929;-71
2023/09/07 06:56:16;;;;;;;;;;;;;;;18.35;100.00;101948.53;5026902;28;20351;-71
2023/09/07 06:58:42;;;;;;;;;;;;;;;18.53;100.00;101956.00;5031332;28;20008;-71
2023/09/07 07:01:07;;;;;;;;;;;;;;;18.67;100.00;101950.09;5025580;28;19920;-72
2023/09/07 07:03:32;;;;;;;;;;;;;;;18.85;100.00;101952.91;5026180;28;19921;-72
2023/09/07 07:05:58;;;;;;;;;;;;;;;18.95;100.00;101958.38;5025651;28;20067;-71
2023/09/07 07:08:23;;;;;;;;;;;;;;;19.10;100.00;101961.47;5025294;28;19989;-72
2023/09/07 07:10:48;;;;;;;;;;;;;;;19.23;100.00;101954.81;5032164;28;20029;-71
2023/09/07 07:13:13;;;;;;;;;;;;;;;19.23;100.00;101955.69;5024378;28;19946;-73
2023/09/07 07:15:39;;;;;;;;;;;;;;;19.34;100.00;101943.75;5029450;28;19921;-71
2023/09/07 07:18:08;;;;;;;;;;;;;;;19.46;100.00;101956.16;5030439;28;19967;-72
2023/09/07 07:20:34;;;;;;;;;;;;;;;19.61;100.00;101947.47;5028257;28;19952;-72
2023/09/07 07:22:59;;;;;;;;;;;;;;;19.67;100.00;101946.00;5031484;28;20039;-74
2023/09/07 07:25:24;;;;;;;;;;;;;;;19.79;100.00;101950.22;5029073;28;19920;-71
2023/09/07 07:27:49;;;;;;;;;;;;;;;19.95;100.00;101956.88;5029858;28;19921;-73
2023/09/07 07:30:15;;;;;;;;;;;;;;;20.03;100.00;101954.25;5026839;28;19921;-72
2023/09/07 07:32:40;;;;;;;;;;;;;;;20.15;100.00;101963.06;5024583;28;20007;-72
2023/09/07 07:35:06;;;;;;;;;;;;;;;20.19;100.00;101959.84;5026434;28;19921;-71
2023/09/07 07:37:32;;;;;;;;;;;;;;;20.33;100.00;101958.44;5010200;28;19925;-73
2023/09/07 07:39:57;;;;;;;;;;;;;;;20.43;100.00;101957.50;5025461;28;20438;-73
2023/09/07 07:42:22;;;;;;;;;;;;;;;20.53;100.00;101953.69;5026855;28;19972;-72
2023/09/07 07:44:47;;;;;;;;;;;;;;;20.62;100.00;101965.50;5014415;28;20287;-72
2023/09/07 07:47:13;;;;;;;;;;;;;;;20.82;100.00;101954.41;5027083;28;20364;-72
2023/09/07 07:49:38;;;;;;;;;;;;;;;20.95;100.00;101962.16;5024315;28;20488;-73
2023/09/07 07:52:03;;;;;;;;;;;;;;;21.12;100.00;101950.34;5029471;28;19928;-73
2023/09/07 07:54:29;;;;;;;;;;;;;;;21.19;100.00;101953.28;5020490;28;19921;-72
2023/09/07 07:56:54;;;;;;;;;;;;;;;21.25;100.00;101954.50;5012297;28;19960;-72
2023/09/07 07:59:19;;;;;;;;;;;;;;;21.42;100.00;101947.22;5010599;28;19925;-72
2023/09/07 08:01:44;;;;;;;;;;;;;;;21.52;100.00;101942.50;5008714;28;20454;-72
2023/09/07 08:04:11;;;;;;;;;;;;;;;21.70;100.00;101945.16;5028546;28;19960;-72
2023/09/07 08:06:36;;;;;;;;;;;;;;;21.80;100.00;101944.13;5025247;28;19925;-71
2023/09/07 08:09:01;;;;;;;;;;;;;;;21.95;100.00;101947.06;5026004;28;19976;-72
2023/09/07 08:11:27;;;;;;;;;;;;;;;22.10;100.00;101937.19;5028707;28;20062;-73
2023/09/07 08:13:52;;;;;;;;;;;;;;;22.26;100.00;101943.69;5022974;28;20323;-73
2023/09/07 08:16:17;;;;;;;;;;;;;;;22.32;100.00;101938.38;5025190;28;19963;-72
2023/09/07 08:18:42;;;;;;;;;;;;;;;22.56;100.00;101944.06;5027127;28;19920;-71
2023/09/07 08:21:08;;;;;;;;;;;;;;;22.66;100.00;101938.41;5026702;28;20051;-71
2023/09/07 08:23:33;;;;;;;;;;;;;;;22.81;100.00;101935.81;5026631;28;19987;-73
2023/09/07 08:25:59;;;;;;;;;;;;;;;22.90;100.00;101930.13;5023959;28;20571;-71
2023/09/07 08:28:25;;;;;;;;;;;;;;;22.96;100.00;101925.84;5031203;28;20442;-73
2023/09/07 08:30:54;;;;;;;;;;;;;;;23.01;100.00;101928.06;5029885;28;19924;-72
2023/09/07 08:33:22;;;;;;;;;;;;;;;23.15;100.00;101929.22;5030691;28;20660;-71
2023/09/07 08:35:51;;;;;;;;;;;;;;;23.26;100.00;101928.00;5023571;28;20373;-72
2023/09/07 08:38:16;;;;;;;;;;;;;;;23.41;100.00;101922.63;5029224;28;20071;-73
2023/09/07 08:40:42;;;;;;;;;;;;;;;23.51;100.00;101923.25;5030693;28;19920;-71
2023/09/07 08:43:09;;;;;;;;;;;;;;;23.64;100.00;101911.69;5024704;28;19924;-72
2023/09/07 08:45:36;;;;;;;;;;;;;;;23.71;100.00;101911.81;5028718;28;19931;-73
2023/09/07 08:48:01;;;;;;;;;;;;;;;23.71;100.00;101904.47;5022431;28;19925;-74
2023/09/07 08:50:26;;;;;;;;;;;;;;;23.86;100.00;101904.53;5026939;28;19925;-73
2023/09/07 08:52:52;;;;;;;;;;;;;;;23.86;100.00;101911.91;5028239;28;19921;-72
2023/09/07 08:55:17;;;;;;;;;;;;;;;24.05;100.00;101905.97;5025867;28;19927;-73
2023/09/07 08:57:42;;;;;;;;;;;;;;;24.15;100.00;101908.47;5030393;28;20019;-73
2023/09/07 09:00:13;;;;;;;;;;;;;;;24.27;100.00;101908.88;5029987;28;20549;-72
2023/09/07 09:02:39;;;;;;;;;;;;;;;24.37;100.00;101909.47;5029077;28;19920;-72
2023/09/07 09:05:04;;;;;;;;;;;;;;;24.53;100.00;101910.34;5031006;28;19920;-72
2023/09/07 09:07:29;;;;;;;;;;;;;;;24.65;100.00;101908.00;5024647;28;20145;-73
2023/09/07 09:10:07;;;;;;;;;;;;;;;24.81;100.00;101902.38;5027345;28;20321;-73
2023/09/07 09:12:33;;;;;;;;;;;;;;;25.00;100.00;101902.84;5030087;28;19924;-73
2023/09/07 09:14:58;;;;;;;;;;;;;;;25.06;100.00;101893.00;5029029;28;20393;-73
2023/09/07 09:17:24;;;;;;;;;;;;;;;25.05;97.92;101902.28;5028336;28;20426;-76
2023/09/07 09:19:49;;;;;;;;;;;;;;;25.13;93.20;101902.19;5027559;28;19920;-76
2023/09/07 09:22:14;;;;;;;;;;;;;;;25.30;95.27;101900.91;5031140;28;19962;-78
2023/09/07 09:24:39;;;;;;;;;;;;;;;25.39;86.78;101900.81;5026090;28;20355;-77
2023/09/07 09:27:05;;;;;;;;;;;;;;;25.60;95.88;101894.53;5029934;28;20275;-77
2023/09/07 09:29:34;;;;;;;;;;;;;;;25.75;92.32;101889.84;5026739;28;20491;-76
2023/09/07 09:32:06;;;;;;;;;;;;;;;25.72;85.32;101895.72;5026724;28;19920;-73
2023/09/07 09:34:32;;;;;;;;;;;;;;;25.72;80.01;101892.97;5023448;28;19925;-74
2023/09/07 09:36:57;;;;;;;;;;;;;;;25.89;93.09;101892.72;5028891;28;20438;-75
2023/09/07 09:39:23;;;;;;;;;;;;;;;25.96;78.61;101884.50;5029836;28;19921;-74
2023/09/07 09:41:49;;;;;;;;;;;;;;;26.12;77.64;101881.53;5031997;28;20214;-80
2023/09/07 09:44:14;;;;;;;;;;;;;;;26.30;84.11;101882.94;5029210;28;19927;-83
2023/09/07 09:46:39;;;;;;;;;;;;;;;26.27;82.63;101881.44;5027021;28;19924;-72
2023/09/07 09:49:04;;;;;;;;;;;;;;;26.43;81.09;101876.69;5032496;28;19931;-78
2023/09/07 09:51:31;;;;;;;;;;;;;;;26.33;82.66;101874.28;5032608;28;19987;-73
2023/09/07 09:53:57;;;;;;;;;;;;;;;26.37;75.32;101871.97;5030182;28;19920;-74
2023/09/07 09:56:22;;;;;;;;;;;;;;;26.49;76.52;101873.13;5027284;28;20405;-78
2023/09/07 09:58:48;;;;;;;;;;;;;;;26.55;75.35;101871.47;5034180;28;19921;-75
2023/09/07 10:01:14;;;;;;;;;;;;;;;26.85;75.57;101861.13;5026037;28;19921;-75
2023/09/07 10:03:45;;;;;;;;;;;;;;;26.97;80.28;101863.28;5026487;28;19924;-74
2023/09/07 10:06:31;;;;;;;;;;;;;;;27.02;82.16;101866.28;5029968;28;20322;-77
2023/09/07 10:08:59;;;;;;;;;;;;;;;27.04;86.68;101864.16;5034917;28;19921;-74
2023/09/07 10:11:34;;;;;;;;;;;;;;;26.95;75.85;101860.75;5029012;28;20347;-75
2023/09/07 10:14:03;;;;;;;;;;;;;;;27.17;89.93;101857.84;5034679;28;19921;-74
2023/09/07 10:16:29;;;;;;;;;;;;;;;27.35;86.52;101855.38;5027541;28;19975;-76
2023/09/07 10:18:54;;;;;;;;;;;;;;;27.38;75.65;101848.59;5030076;28;20347;-73
2023/09/07 10:21:20;;;;;;;;;;;;;;;27.58;73.73;101845.91;5014870;28;19921;-74
2023/09/07 10:23:45;;;;;;;;;;;;;;;27.90;68.81;101845.34;5027606;28;20398;-73
2023/09/07 10:26:22;;;;;;;;;;;;;;;28.04;70.09;101849.78;5025638;28;20027;-74
2023/09/07 10:28:49;;;;;;;;;;;;;;;28.18;77.30;101849.81;5027460;28;19940;-74
2023/09/07 10:31:15;;;;;;;;;;;;;;;28.11;62.78;101852.56;5028054;28;20397;-73
2023/09/07 10:33:41;;;;;;;;;;;;;;;28.26;63.99;101847.69;5029582;28;20290;-77
2023/09/07 10:36:06;;;;;;;;;;;;;;;28.36;70.29;101852.78;5029408;28;20437;-71
2023/09/07 10:38:32;;;;;;;;;;;;;;;28.39;61.62;101855.09;5026211;28;20364;-72
2023/09/07 10:40:57;;;;;;;;;;;;;;;28.65;63.25;101855.25;5028399;28;21351;-73
2023/09/07 10:43:23;;;;;;;;;;;;;;;28.59;63.74;101848.69;5028971;28;19927;-71
2023/09/07 10:45:49;;;;;;;;;;;;;;;28.41;58.38;101847.47;5027631;28;19954;-75
2023/09/07 10:48:14;;;;;;;;;;;;;;;28.85;58.65;101856.09;5036380;28;19920;-74
2023/09/07 10:50:44;;;;;;;;;;;;;;;28.81;60.82;101846.56;5034714;28;19924;-72
2023/09/07 10:53:09;;;;;;;;;;;;;;;29.13;60.84;101848.53;5032378;28;20429;-73
2023/09/07 10:55:40;;;;;;;;;;;;;;;29.46;53.46;101853.09;5033531;28;20390;-75
2023/09/07 10:58:05;;;;;;;;;;;;;;;29.81;55.81;101847.09;5015923;28;19929;-74
2023/09/07 11:00:30;;;;;;;;;;;;;;;29.90;55.85;101842.97;5030709;28;20313;-73
2023/09/07 11:02:56;;;;;;;;;;;;;;;29.52;55.65;101838.38;5031924;28;19924;-73
2023/09/07 11:05:21;;;;;;;;;;;;;;;29.70;55.53;101834.81;5036968;28;19956;-74
2023/09/07 11:07:46;;;;;;;;;;;;;;;29.51;52.34;101844.97;5033133;28;20011;-72
2023/09/07 11:10:11;;;;;;;;;;;;;;;30.18;52.93;101832.56;5027266;28;19925;-75
2023/09/07 11:12:38;;;;;;;;;;;;;;;30.45;47.95;101827.59;5033573;28;19936;-72
2023/09/07 11:15:04;;;;;;;;;;;;;;;30.65;49.38;101834.84;5034782;28;19985;-75
2023/09/07 11:17:29;;;;;;;;;;;;;;;30.71;47.85;101833.13;5029898;28;20504;-79
2023/09/07 11:19:54;;;;;;;;;;;;;;;30.93;46.90;101834.31;5030593;28;20324;-75
2023/09/07 11:22:20;;;;;;;;;;;;;;;31.81;44.71;101827.56;5030519;28;20013;-75
2023/09/07 11:24:45;;;;;;;;;;;;;;;32.20;45.26;101829.91;5030768;28;19935;-76
2023/09/07 11:27:11;;;;;;;;;;;;;;;32.08;44.94;101829.91;5030783;28;19924;-74
2023/09/07 11:29:36;;;;;;;;;;;;;;;32.53;46.45;101828.47;5034922;28;20232;-74
2023/09/07 11:32:08;;;;;;;;;;;;;;;33.26;44.54;101826.09;5031853;28;19927;-74
2023/09/07 11:34:33;;;;;;;;;;;;;;;33.17;43.24;101822.00;5033133;28;19952;-74
2023/09/07 11:36:59;;;;;;;;;;;;;;;33.52;41.83;101812.66;5030381;28;20031;-71
2023/09/07 11:39:24;;;;;;;;;;;;;;;34.01;43.34;101819.63;5033844;28;19934;-73
2023/09/07 11:41:49;;;;;;;;;;;;;;;33.93;41.38;101807.81;5030370;28;19917;-75
2023/09/07 11:44:14;;;;;;;;;;;;;;;34.10;39.11;101807.78;5032509;28;19925;-72
2023/09/07 11:46:40;;;;;;;;;;;;;;;34.78;39.02;101811.53;5032511;28;20206;-74
2023/09/07 11:49:05;;;;;;;;;;;;;;;34.45;38.04;101805.81;5030276;28;19952;-72
2023/09/07 11:51:31;;;;;;;;;;;;;;;35.07;37.18;101791.81;5029288;28;19920;-72
2023/09/07 11:53:56;;;;;;;;;;;;;;;35.18;35.77;101782.44;5029793;28;19928;-73
2023/09/07 11:56:21;;;;;;;;;;;;;;;35.77;35.13;101785.47;5030096;28;20123;-72
2023/09/07 11:58:47;;;;;;;;;;;;;;;35.89;35.52;101786.13;5034890;28;19924;-73
2023/09/07 12:01:16;;;;;;;;;;;;;;;36.25;35.93;101789.19;5034618;28;19927;-74
2023/09/07 12:03:41;;;;;;;;;;;;;;;36.17;33.50;101786.91;5033790;28;19924;-73
2023/09/07 12:06:07;;;;;;;;;;;;;;;36.22;33.77;101772.97;5026581;28;19962;-74
2023/09/07 12:08:32;;;;;;;;;;;;;;;35.60;35.04;101775.28;5032750;28;19951;-75
2023/09/07 12:10:57;;;;;;;;;;;;;;;35.58;36.08;101761.63;5031290;28;19948;-74
2023/09/07 12:13:22;;;;;;;;;;;;;;;35.47;36.41;101782.16;5029332;28;19967;-74
2023/09/07 12:15:48;;;;;;;;;;;;;;;35.86;37.19;101767.09;5034491;28;20268;-74
2023/09/07 12:18:13;;;;;;;;;;;;;;;35.35;36.14;101773.94;5030189;28;19968;-74
2023/09/07 12:20:38;;;;;;;;;;;;;;;34.16;36.83;101771.66;5035119;28;20035;-78